createdAt,value
2023-05-01T00:00:40.632Z,25.05
2023-05-01T00:01:40.641Z,25.07
2023-05-01T00:02:40.746Z,25.06
2023-05-01T00:03:40.752Z,25.05
2023-05-01T00:04:40.738Z,25.06
2023-05-01T00:05:41.152Z,25.03
2023-05-01T00:06:40.776Z,25.05
2023-05-01T00:07:40.777Z,25.03
2023-05-01T00:08:40.803Z,25.06
2023-05-01T00:09:40.797Z,25.03
2023-05-01T00:10:41.154Z,25.05
2023-05-01T00:11:40.879Z,25.03
2023-05-01T00:12:40.899Z,25.03
2023-05-01T00:13:40.947Z,25.05
2023-05-01T00:14:40.931Z,25.03
2023-05-01T00:15:40.980Z,25.03
2023-05-01T00:16:41.084Z,25.03
2023-05-01T00:17:41.059Z,25.02
2023-05-01T00:18:41.043Z,25.03
2023-05-01T00:19:41.068Z,25.03
2023-05-01T00:20:41.122Z,25.03
2023-05-01T00:21:41.121Z,25.03
2023-05-01T00:22:41.166Z,25.02
2023-05-01T00:23:41.211Z,25.05
2023-05-01T00:24:41.229Z,25.05
2023-05-01T00:25:41.241Z,25.03
2023-05-01T00:26:41.264Z,25.02
2023-05-01T00:27:41.284Z,25.03
2023-05-01T00:28:41.292Z,25.02
2023-05-01T00:29:41.314Z,25.00
2023-05-01T00:30:41.352Z,25.03
2023-05-01T00:31:41.445Z,25.00
2023-05-01T00:32:41.504Z,25.02
2023-05-01T00:33:41.465Z,25.00
2023-05-01T00:34:41.454Z,25.03
2023-05-01T00:35:41.475Z,25.03
2023-05-01T00:36:41.505Z,25.03
2023-05-01T00:37:41.574Z,25.00
2023-05-01T00:38:41.569Z,25.02
2023-05-01T00:39:41.578Z,24.99
2023-05-01T00:40:41.676Z,25.02
2023-05-01T00:41:41.620Z,25.02
2023-05-01T00:42:41.639Z,25.00
2023-05-01T00:43:42.655Z,25.02
2023-05-01T00:44:41.688Z,25.00
2023-05-01T00:45:41.765Z,25.05
2023-05-01T00:46:41.740Z,25.00
2023-05-01T00:47:41.832Z,24.99
2023-05-01T00:48:41.799Z,25.05
2023-05-01T00:49:41.838Z,24.99
2023-05-01T00:50:41.846Z,25.02
2023-05-01T00:51:41.892Z,25.02
2023-05-01T00:52:41.955Z,25.02
2023-05-01T00:53:41.936Z,24.99
2023-05-01T00:54:42.002Z,25.03
2023-05-01T00:55:41.973Z,24.97
2023-05-01T00:56:42.011Z,24.99
2023-05-01T00:57:42.061Z,25.00
2023-05-01T00:58:42.108Z,24.97
2023-05-01T00:59:42.092Z,24.99
2023-05-01T01:00:42.120Z,25.00
2023-05-01T01:01:42.164Z,25.02
2023-05-01T01:02:42.183Z,24.97
2023-05-01T01:03:42.191Z,24.97
2023-05-01T01:04:42.281Z,25.00
2023-05-01T01:05:42.258Z,25.00
2023-05-01T01:06:42.369Z,24.97
2023-05-01T01:07:42.338Z,24.97
2023-05-01T01:08:42.344Z,24.99
2023-05-01T01:09:42.333Z,24.97
2023-05-01T01:10:42.392Z,24.99
2023-05-01T01:11:42.388Z,24.97
2023-05-01T01:12:42.440Z,24.99
2023-05-01T01:13:42.472Z,24.97
2023-05-01T01:14:42.533Z,24.99
2023-05-01T01:15:42.540Z,24.96
2023-05-01T01:16:42.607Z,25.00
2023-05-01T01:17:42.574Z,24.97
2023-05-01T01:18:42.647Z,24.97
2023-05-01T01:19:42.641Z,24.96
2023-05-01T01:20:42.703Z,24.99
2023-05-01T01:21:42.701Z,24.96
2023-05-01T01:22:42.749Z,24.99
2023-05-01T01:23:42.793Z,24.97
2023-05-01T01:24:42.790Z,24.96
2023-05-01T01:25:42.823Z,24.97
2023-05-01T01:26:42.843Z,24.94
2023-05-01T01:27:42.900Z,24.99
2023-05-01T01:28:42.887Z,24.94
2023-05-01T01:29:42.939Z,24.96
2023-05-01T01:30:43.206Z,24.97
2023-05-01T01:31:43.053Z,24.96
2023-05-01T01:32:43.054Z,24.94
2023-05-01T01:33:43.064Z,24.97
2023-05-01T01:34:43.064Z,24.94
2023-05-01T01:35:43.098Z,24.96
2023-05-01T01:36:43.169Z,24.97
2023-05-01T01:37:43.160Z,24.97
2023-05-01T01:38:43.158Z,24.94
2023-05-01T01:39:43.224Z,24.94
2023-05-01T01:40:43.682Z,24.94
2023-05-01T01:41:43.262Z,24.94
2023-05-01T01:42:43.262Z,24.94
2023-05-01T01:43:43.394Z,24.94
2023-05-01T01:44:43.341Z,24.94
2023-05-01T01:45:43.388Z,24.94
2023-05-01T01:46:43.445Z,24.94
2023-05-01T01:47:43.427Z,24.97
2023-05-01T01:48:43.473Z,24.93
2023-05-01T01:49:43.495Z,24.94
2023-05-01T01:50:43.708Z,24.93
2023-05-01T01:51:43.532Z,24.93
2023-05-01T01:52:43.561Z,24.94
2023-05-01T01:53:43.576Z,24.93
2023-05-01T01:54:43.643Z,24.93
2023-05-01T01:55:43.737Z,24.90
2023-05-01T01:56:43.678Z,24.94
2023-05-01T01:57:43.674Z,24.94
2023-05-01T01:58:43.701Z,24.93
2023-05-01T01:59:43.775Z,24.93
2023-05-01T02:00:43.766Z,24.91
2023-05-01T02:01:43.844Z,24.90
2023-05-01T02:02:43.938Z,24.93
2023-05-01T02:03:43.971Z,24.93
2023-05-01T02:04:43.915Z,24.93
2023-05-01T02:05:43.926Z,24.91
2023-05-01T02:06:43.997Z,24.93
2023-05-01T02:07:43.950Z,24.93
2023-05-01T02:08:43.990Z,24.96
2023-05-01T02:09:44.038Z,24.93
2023-05-01T02:10:44.057Z,24.93
2023-05-01T02:11:44.083Z,24.90
2023-05-01T02:12:44.107Z,24.94
2023-05-01T02:13:44.114Z,24.93
2023-05-01T02:14:44.153Z,24.91
2023-05-01T02:15:44.225Z,24.90
2023-05-01T02:16:44.217Z,24.91
2023-05-01T02:17:44.299Z,24.90
2023-05-01T02:18:44.260Z,24.91
2023-05-01T02:19:44.271Z,24.93
2023-05-01T02:20:44.702Z,24.90
2023-05-01T02:21:44.377Z,24.90
2023-05-01T02:22:44.372Z,24.94
2023-05-01T02:23:44.404Z,24.91
2023-05-01T02:24:44.446Z,24.91
2023-05-01T02:25:44.688Z,24.89
2023-05-01T02:26:44.513Z,24.91
2023-05-01T02:27:44.534Z,24.90
2023-05-01T02:28:44.557Z,24.93
2023-05-01T02:29:44.606Z,24.90
2023-05-01T02:30:44.690Z,24.90
2023-05-01T02:31:44.674Z,24.90
2023-05-01T02:32:44.802Z,24.90
2023-05-01T02:33:44.719Z,24.89
2023-05-01T02:34:44.768Z,24.91
2023-05-01T02:35:44.772Z,24.90
2023-05-01T02:36:44.826Z,24.91
2023-05-01T02:37:44.829Z,24.89
2023-05-01T02:38:44.868Z,24.90
2023-05-01T02:39:44.903Z,24.91
2023-05-01T02:40:44.933Z,24.91
2023-05-01T02:41:44.980Z,24.90
2023-05-01T02:42:44.994Z,24.90
2023-05-01T02:43:45.012Z,24.89
2023-05-01T02:44:45.081Z,24.90
2023-05-01T02:45:45.204Z,24.90
2023-05-01T02:46:45.141Z,24.90
2023-05-01T02:47:45.155Z,24.90
2023-05-01T02:48:45.164Z,24.89
2023-05-01T02:49:45.225Z,24.87
2023-05-01T02:50:45.252Z,24.90
2023-05-01T02:51:45.279Z,24.89
2023-05-01T02:52:45.301Z,24.90
2023-05-01T02:53:45.347Z,24.90
2023-05-01T02:54:45.409Z,24.89
2023-05-01T02:55:45.739Z,24.89
2023-05-01T02:56:45.421Z,24.91
2023-05-01T02:57:45.454Z,24.89
2023-05-01T02:58:45.502Z,24.87
2023-05-01T02:59:45.526Z,24.89
2023-05-01T03:00:45.739Z,24.87
2023-05-01T03:01:45.627Z,24.90
2023-05-01T03:02:45.619Z,24.89
2023-05-01T03:03:45.690Z,24.89
2023-05-01T03:04:45.683Z,24.86
2023-05-01T03:05:45.691Z,24.89
2023-05-01T03:06:45.757Z,24.87
2023-05-01T03:07:45.734Z,24.87
2023-05-01T03:08:45.789Z,24.89
2023-05-01T03:09:45.820Z,24.87
2023-05-01T03:10:45.876Z,24.89
2023-05-01T03:11:45.896Z,24.85
2023-05-01T03:12:45.893Z,24.86
2023-05-01T03:13:45.925Z,24.89
2023-05-01T03:14:45.926Z,24.86
2023-05-01T03:15:46.215Z,24.87
2023-05-01T03:16:46.145Z,24.86
2023-05-01T03:17:46.086Z,24.89
2023-05-01T03:18:46.052Z,24.87
2023-05-01T03:19:46.090Z,24.87
2023-05-01T03:20:46.255Z,24.89
2023-05-01T03:21:46.137Z,24.87
2023-05-01T03:22:46.183Z,24.89
2023-05-01T03:23:46.203Z,24.89
2023-05-01T03:24:46.236Z,24.87
2023-05-01T03:25:46.316Z,24.89
2023-05-01T03:26:46.322Z,24.89
2023-05-01T03:27:46.348Z,24.86
2023-05-01T03:28:46.363Z,24.87
2023-05-01T03:29:46.413Z,24.86
2023-05-01T03:30:46.732Z,24.86
2023-05-01T03:31:46.531Z,24.86
2023-05-01T03:32:46.632Z,24.89
2023-05-01T03:33:46.533Z,24.87
2023-05-01T03:34:46.572Z,24.85
2023-05-01T03:35:46.635Z,24.87
2023-05-01T03:36:46.638Z,24.87
2023-05-01T03:37:46.669Z,24.85
2023-05-01T03:38:46.683Z,24.86
2023-05-01T03:39:46.734Z,24.87
2023-05-01T03:40:46.740Z,24.86
2023-05-01T03:41:46.775Z,24.87
2023-05-01T03:42:46.821Z,24.86
2023-05-01T03:43:46.856Z,24.83
2023-05-01T03:44:46.845Z,24.85
2023-05-01T03:45:46.990Z,24.86
2023-05-01T03:46:47.017Z,24.87
2023-05-01T03:47:47.001Z,24.86
2023-05-01T03:48:47.010Z,24.87
2023-05-01T03:49:47.015Z,24.86
2023-05-01T03:50:47.065Z,24.87
2023-05-01T03:51:47.084Z,24.85
2023-05-01T03:52:47.109Z,24.86
2023-05-01T03:53:47.191Z,24.85
2023-05-01T03:54:47.194Z,24.86
2023-05-01T03:55:47.232Z,24.87
2023-05-01T03:56:47.273Z,24.87
2023-05-01T03:57:47.298Z,24.87
2023-05-01T03:58:47.318Z,24.87
2023-05-01T03:59:47.386Z,24.85
2023-05-01T04:00:47.425Z,24.85
2023-05-01T04:01:47.794Z,24.87
2023-05-01T04:02:47.772Z,24.86
2023-05-01T04:03:47.577Z,24.86
2023-05-01T04:04:47.541Z,24.86
2023-05-01T04:05:47.607Z,24.86
2023-05-01T04:06:47.682Z,24.86
2023-05-01T04:07:47.667Z,24.86
2023-05-01T04:08:47.696Z,24.85
2023-05-01T04:09:47.751Z,24.83
2023-05-01T04:10:47.750Z,24.85
2023-05-01T04:11:47.795Z,24.86
2023-05-01T04:12:47.833Z,24.86
2023-05-01T04:13:47.860Z,24.86
2023-05-01T04:14:47.885Z,24.87
2023-05-01T04:15:47.967Z,24.87
2023-05-01T04:16:47.931Z,24.86
2023-05-01T04:17:47.999Z,24.85
2023-05-01T04:18:47.992Z,24.85
2023-05-01T04:19:48.048Z,24.85
2023-05-01T04:20:48.091Z,24.86
2023-05-01T04:21:48.144Z,24.85
2023-05-01T04:22:48.170Z,24.86
2023-05-01T04:23:48.186Z,24.85
2023-05-01T04:24:48.222Z,24.86
2023-05-01T04:25:48.293Z,24.85
2023-05-01T04:26:48.278Z,24.86
2023-05-01T04:27:48.357Z,24.86
2023-05-01T04:28:48.361Z,24.86
2023-05-01T04:29:48.403Z,24.86
2023-05-01T04:30:48.455Z,24.86
2023-05-01T04:31:48.594Z,24.85
2023-05-01T04:32:48.615Z,24.85
2023-05-01T04:33:48.592Z,24.85
2023-05-01T04:34:48.609Z,24.85
2023-05-01T04:35:48.658Z,24.83
2023-05-01T04:36:48.669Z,24.85
2023-05-01T04:37:48.720Z,24.85
2023-05-01T04:38:48.787Z,24.85
2023-05-01T04:39:48.782Z,24.83
2023-05-01T04:40:48.808Z,24.85
2023-05-01T04:41:48.876Z,24.85
2023-05-01T04:42:48.908Z,24.87
2023-05-01T04:43:48.935Z,24.85
2023-05-01T04:44:48.979Z,24.85
2023-05-01T04:45:49.016Z,24.85
2023-05-01T04:46:49.132Z,24.86
2023-05-01T04:47:49.085Z,24.83
2023-05-01T04:48:49.133Z,24.85
2023-05-01T04:49:49.150Z,24.83
2023-05-01T04:50:49.208Z,24.83
2023-05-01T04:51:49.275Z,24.83
2023-05-01T04:52:49.277Z,24.82
2023-05-01T04:53:49.318Z,24.80
2023-05-01T04:54:49.370Z,24.85
2023-05-01T04:55:49.405Z,24.83
2023-05-01T04:56:49.573Z,24.82
2023-05-01T04:57:49.544Z,24.82
2023-05-01T04:58:49.638Z,24.82
2023-05-01T04:59:49.564Z,24.85
2023-05-01T05:00:49.609Z,24.82
2023-05-01T05:01:49.650Z,24.83
2023-05-01T05:02:49.734Z,24.83
2023-05-01T05:03:50.353Z,24.83
2023-05-01T05:04:49.747Z,24.80
2023-05-01T05:05:49.774Z,24.83
2023-05-01T05:06:49.904Z,24.80
2023-05-01T05:07:49.871Z,24.80
2023-05-01T05:08:49.892Z,24.83
2023-05-01T05:09:49.949Z,24.82
2023-05-01T05:10:50.007Z,24.82
2023-05-01T05:11:50.016Z,24.83
2023-05-01T05:12:50.066Z,24.83
2023-05-01T05:13:50.113Z,24.83
2023-05-01T05:14:50.150Z,24.82
2023-05-01T05:15:50.185Z,24.80
2023-05-01T05:16:50.549Z,24.83
2023-05-01T05:17:50.278Z,24.83
2023-05-01T05:18:50.340Z,24.83
2023-05-01T05:19:50.401Z,24.82
2023-05-01T05:20:50.421Z,24.83
2023-05-01T05:21:50.484Z,24.82
2023-05-01T05:22:50.481Z,24.83
2023-05-01T05:23:50.528Z,24.82
2023-05-01T05:24:50.563Z,24.83
2023-05-01T05:25:50.628Z,24.83
2023-05-01T05:26:50.703Z,24.82
2023-05-01T05:27:50.682Z,24.85
2023-05-01T05:28:50.713Z,24.83
2023-05-01T05:29:50.771Z,24.82
2023-05-01T05:30:50.805Z,24.87
2023-05-01T05:31:50.882Z,24.86
2023-05-01T05:32:50.946Z,24.82
2023-05-01T05:33:50.940Z,24.83
2023-05-01T05:34:50.927Z,24.82
2023-05-01T05:35:51.024Z,24.83
2023-05-01T05:36:51.066Z,24.83
2023-05-01T05:37:51.077Z,24.82
2023-05-01T05:38:51.109Z,24.79
2023-05-01T05:39:51.170Z,24.83
2023-05-01T05:40:51.216Z,24.85
2023-05-01T05:41:51.259Z,24.82
2023-05-01T05:42:51.320Z,24.82
2023-05-01T05:43:51.310Z,24.83
2023-05-01T05:44:51.340Z,24.82
2023-05-01T05:45:51.455Z,24.83
2023-05-01T05:46:51.459Z,24.83
2023-05-01T05:47:51.520Z,24.82
2023-05-01T05:48:51.527Z,24.82
2023-05-01T05:49:51.574Z,24.82
2023-05-01T05:50:51.628Z,24.83
2023-05-01T05:51:51.701Z,24.85
2023-05-01T05:52:51.713Z,24.82
2023-05-01T05:53:51.755Z,24.83
2023-05-01T05:54:51.789Z,24.82
2023-05-01T05:55:51.800Z,24.83
2023-05-01T05:56:51.886Z,24.82
2023-05-01T05:57:51.933Z,24.80
2023-05-01T05:58:51.945Z,24.83
2023-05-01T05:59:51.992Z,24.85
2023-05-01T06:00:52.082Z,24.85
2023-05-01T06:01:52.277Z,24.86
2023-05-01T06:02:52.162Z,24.85
2023-05-01T06:03:52.238Z,24.85
2023-05-01T06:04:52.197Z,24.83
2023-05-01T06:05:52.307Z,24.82
2023-05-01T06:06:52.833Z,24.85
2023-05-01T06:07:52.323Z,24.85
2023-05-01T06:08:52.391Z,24.82
2023-05-01T06:09:52.420Z,24.83
2023-05-01T06:10:52.498Z,24.85
2023-05-01T06:11:52.512Z,24.83
2023-05-01T06:12:54.760Z,24.86
2023-05-01T06:13:53.539Z,24.86
2023-05-01T06:14:52.575Z,24.83
2023-05-01T06:15:52.586Z,24.86
2023-05-01T06:16:52.794Z,24.85
2023-05-01T06:17:52.580Z,24.86
2023-05-01T06:18:52.495Z,24.90
2023-05-01T06:19:52.512Z,24.87
2023-05-01T06:20:52.516Z,24.89
2023-05-01T06:21:52.468Z,24.87
2023-05-01T06:22:52.484Z,24.87
2023-05-01T06:23:52.480Z,24.86
2023-05-01T06:24:52.513Z,24.86
2023-05-01T06:25:52.566Z,24.87
2023-05-01T06:26:52.615Z,24.83
2023-05-01T06:27:52.667Z,24.85
2023-05-01T06:28:52.691Z,24.86
2023-05-01T06:29:52.769Z,24.86
2023-05-01T06:30:52.839Z,24.87
2023-05-01T06:31:52.882Z,24.87
2023-05-01T06:32:52.998Z,24.85
2023-05-01T06:33:52.875Z,24.87
2023-05-01T06:35:49.700Z,24.85
2023-05-01T06:36:49.645Z,24.86
2023-05-01T06:37:49.647Z,24.85
2023-05-01T06:38:49.682Z,24.85
2023-05-01T06:39:49.625Z,24.87
2023-05-01T06:40:49.643Z,24.89
2023-05-01T06:41:49.652Z,24.87
2023-05-01T06:42:49.599Z,24.86
2023-05-01T06:43:49.604Z,24.89
2023-05-01T06:44:49.608Z,24.89
2023-05-01T06:45:49.601Z,24.90
2023-05-01T06:46:49.655Z,24.86
2023-05-01T06:47:49.643Z,24.87
2023-05-01T06:48:49.582Z,24.89
2023-05-01T06:49:49.590Z,24.87
2023-05-01T06:50:49.561Z,24.87
2023-05-01T06:51:49.528Z,24.87
2023-05-01T06:52:49.548Z,24.87
2023-05-01T06:53:49.645Z,24.86
2023-05-01T06:54:49.520Z,24.87
2023-05-01T06:55:49.538Z,24.89
2023-05-01T06:56:49.544Z,24.89
2023-05-01T06:57:49.515Z,24.86
2023-05-01T06:58:49.510Z,24.89
2023-05-01T06:59:49.513Z,24.87
2023-05-01T07:00:49.556Z,24.87
2023-05-01T07:01:49.555Z,24.85
2023-05-01T07:02:49.618Z,24.89
2023-05-01T07:03:49.505Z,24.89
2023-05-01T07:04:49.456Z,24.89
2023-05-01T07:05:49.497Z,24.89
2023-05-01T07:06:49.546Z,24.89
2023-05-01T07:07:57.905Z,24.86
2023-05-01T07:08:50.441Z,24.89
2023-05-01T07:09:49.461Z,24.90
2023-05-01T07:10:49.434Z,24.86
2023-05-01T07:11:49.436Z,24.90
2023-05-01T07:12:49.448Z,24.87
2023-05-01T07:13:49.420Z,24.91
2023-05-01T07:14:49.428Z,24.89
2023-05-01T07:15:49.393Z,24.89
2023-05-01T07:16:49.435Z,24.91
2023-05-01T07:17:49.834Z,24.91
2023-05-01T07:18:49.383Z,24.90
2023-05-01T07:19:49.387Z,24.91
2023-05-01T07:20:49.361Z,24.91
2023-05-01T07:21:49.415Z,24.91
2023-05-01T07:22:49.455Z,24.91
2023-05-01T07:23:49.472Z,24.91
2023-05-01T07:24:49.523Z,24.93
2023-05-01T07:25:49.534Z,24.91
2023-05-01T07:26:49.601Z,24.91
2023-05-01T07:27:49.623Z,24.93
2023-05-01T07:28:49.662Z,24.90
2023-05-01T07:29:49.717Z,24.90
2023-05-01T07:30:49.723Z,24.91
2023-05-01T07:31:49.789Z,24.93
2023-05-01T07:32:49.831Z,24.90
2023-05-01T07:33:50.972Z,24.91
2023-05-01T07:34:49.870Z,24.91
2023-05-01T07:35:49.896Z,24.93
2023-05-01T07:36:49.919Z,24.93
2023-05-01T07:37:49.941Z,24.90
2023-05-01T07:38:50.000Z,24.91
2023-05-01T07:39:50.019Z,24.93
2023-05-01T07:40:50.056Z,24.93
2023-05-01T07:41:50.065Z,24.94
2023-05-01T07:42:51.327Z,24.91
2023-05-01T07:43:50.118Z,24.91
2023-05-01T07:44:50.105Z,24.94
2023-05-01T07:45:50.190Z,24.94
2023-05-01T07:46:50.096Z,24.93
2023-05-01T07:47:50.129Z,24.94
2023-05-01T07:48:50.071Z,24.94
2023-05-01T07:49:50.130Z,24.93
2023-05-01T07:50:50.088Z,24.93
2023-05-01T07:51:50.071Z,24.93
2023-05-01T07:52:50.299Z,24.94
2023-05-01T07:53:50.056Z,24.93
2023-05-01T07:54:50.823Z,24.91
2023-05-01T07:55:50.060Z,24.91
2023-05-01T07:56:50.043Z,24.96
2023-05-01T07:57:50.315Z,24.93
2023-05-01T07:58:49.997Z,24.94
2023-05-01T07:59:50.028Z,24.96
2023-05-01T08:00:50.002Z,24.97
2023-05-01T08:01:50.037Z,24.97
2023-05-01T08:02:50.140Z,24.96
2023-05-01T08:03:51.090Z,24.96
2023-05-01T08:04:50.084Z,24.96
2023-05-01T08:05:49.979Z,24.97
2023-05-01T08:06:50.212Z,24.94
2023-05-01T08:07:49.973Z,24.96
2023-05-01T08:08:49.967Z,24.96
2023-05-01T08:09:49.944Z,24.94
2023-05-01T08:10:49.960Z,24.96
2023-05-01T08:11:49.931Z,24.99
2023-05-01T08:12:49.948Z,24.97
2023-05-01T08:13:49.936Z,24.99
2023-05-01T08:14:49.949Z,24.99
2023-05-01T08:15:50.015Z,25.02
2023-05-01T08:16:49.928Z,25.00
2023-05-01T08:17:50.321Z,25.00
2023-05-01T08:18:49.896Z,25.00
2023-05-01T08:19:49.890Z,25.00
2023-05-01T08:20:49.875Z,25.00
2023-05-01T08:21:49.886Z,24.99
2023-05-01T08:22:49.887Z,25.03
2023-05-01T08:23:49.879Z,25.03
2023-05-01T08:24:49.874Z,25.00
2023-05-01T08:25:49.866Z,25.00
2023-05-01T08:26:49.818Z,25.00
2023-05-01T08:27:49.829Z,25.02
2023-05-01T08:28:49.837Z,25.00
2023-05-01T08:29:49.824Z,25.02
2023-05-01T08:30:49.817Z,25.00
2023-05-01T08:31:49.828Z,25.00
2023-05-01T08:32:49.872Z,25.03
2023-05-01T08:33:49.788Z,25.02
2023-05-01T08:34:49.789Z,25.03
2023-05-01T08:35:49.782Z,25.03
2023-05-01T08:36:49.787Z,25.05
2023-05-01T08:37:49.794Z,25.05
2023-05-01T08:38:49.761Z,25.05
2023-05-01T08:39:49.757Z,25.07
2023-05-01T08:40:49.763Z,25.05
2023-05-01T08:41:49.749Z,25.05
2023-05-01T08:42:49.799Z,25.07
2023-05-01T08:43:49.813Z,25.03
2023-05-01T08:44:49.859Z,25.05
2023-05-01T08:45:49.885Z,25.06
2023-05-01T08:46:49.975Z,25.06
2023-05-01T08:47:50.349Z,25.07
2023-05-01T08:48:49.926Z,25.07
2023-05-01T08:49:49.994Z,25.09
2023-05-01T08:50:49.994Z,25.06
2023-05-01T08:51:50.062Z,25.11
2023-05-01T08:52:50.348Z,25.10
2023-05-01T08:53:50.039Z,25.10
2023-05-01T08:54:50.070Z,25.09
2023-05-01T08:55:50.128Z,25.09
2023-05-01T08:56:50.130Z,25.09
2023-05-01T08:57:50.190Z,25.10
2023-05-01T08:58:50.145Z,25.09
2023-05-01T08:59:50.172Z,25.09
2023-05-01T09:00:50.210Z,25.10
2023-05-01T09:01:50.301Z,25.09
2023-05-01T09:02:50.349Z,25.10
2023-05-01T09:03:50.270Z,25.11
2023-05-01T09:04:50.289Z,25.11
2023-05-01T09:05:50.318Z,25.11
2023-05-01T09:06:50.314Z,25.11
2023-05-01T09:07:50.326Z,25.11
2023-05-01T09:08:50.369Z,25.14
2023-05-01T09:09:50.382Z,25.13
2023-05-01T09:10:50.373Z,25.10
2023-05-01T09:11:50.438Z,25.16
2023-05-01T09:12:50.426Z,25.14
2023-05-01T09:13:50.503Z,25.13
2023-05-01T09:14:50.511Z,25.17
2023-05-01T09:15:50.528Z,25.13
2023-05-01T09:16:50.572Z,25.13
2023-05-01T09:17:50.585Z,25.13
2023-05-01T09:18:50.600Z,25.11
2023-05-01T09:19:50.593Z,25.14
2023-05-01T09:20:50.610Z,25.14
2023-05-01T09:21:50.685Z,25.16
2023-05-01T09:22:50.656Z,25.16
2023-05-01T09:23:50.752Z,25.17
2023-05-01T09:24:50.744Z,25.16
2023-05-01T09:25:51.997Z,25.17
2023-05-01T09:26:50.705Z,25.17
2023-05-01T09:27:50.828Z,25.19
2023-05-01T09:28:50.770Z,25.14
2023-05-01T09:29:50.821Z,25.16
2023-05-01T09:30:50.866Z,25.14
2023-05-01T09:31:50.998Z,25.13
2023-05-01T09:32:50.870Z,25.16
2023-05-01T09:33:51.836Z,25.17
2023-05-01T09:34:50.918Z,25.17
2023-05-01T09:35:50.928Z,25.16
2023-05-01T09:36:50.928Z,25.19
2023-05-01T09:37:50.952Z,25.19
2023-05-01T09:38:50.961Z,25.20
2023-05-01T09:39:51.010Z,25.20
2023-05-01T09:40:50.941Z,25.17
2023-05-01T09:41:51.021Z,25.19
2023-05-01T09:42:51.018Z,25.16
2023-05-01T09:43:51.023Z,25.17
2023-05-01T09:44:51.027Z,25.19
2023-05-01T09:45:51.066Z,25.19
2023-05-01T09:46:51.058Z,25.20
2023-05-01T09:47:51.144Z,25.20
2023-05-01T09:48:51.118Z,25.20
2023-05-01T09:49:51.124Z,25.19
2023-05-01T09:50:51.169Z,25.21
2023-05-01T09:51:51.145Z,25.23
2023-05-01T09:52:51.195Z,25.23
2023-05-01T09:53:51.149Z,25.24
2023-05-01T09:54:51.273Z,25.23
2023-05-01T09:55:51.215Z,25.23
2023-05-01T09:56:51.252Z,25.23
2023-05-01T09:57:51.227Z,25.23
2023-05-01T09:58:51.239Z,25.21
2023-05-01T09:59:51.260Z,25.24
2023-05-01T10:00:51.393Z,25.23
2023-05-01T10:01:51.382Z,25.20
2023-05-01T10:02:51.441Z,25.26
2023-05-01T10:03:51.633Z,25.23
2023-05-01T10:04:51.328Z,25.21
2023-05-01T10:05:51.346Z,25.23
2023-05-01T10:06:51.399Z,25.24
2023-05-01T10:07:51.887Z,25.26
2023-05-01T10:08:51.396Z,25.24
2023-05-01T10:09:51.429Z,25.26
2023-05-01T10:10:51.420Z,25.24
2023-05-01T10:11:51.479Z,25.23
2023-05-01T10:12:51.875Z,25.23
2023-05-01T10:13:51.491Z,25.21
2023-05-01T10:14:51.476Z,25.24
2023-05-01T10:15:51.519Z,25.23
2023-05-01T10:16:51.536Z,25.23
2023-05-01T10:17:52.451Z,25.24
2023-05-01T10:18:51.559Z,25.24
2023-05-01T10:19:51.621Z,25.24
2023-05-01T10:20:51.607Z,25.26
2023-05-01T10:21:51.606Z,25.27
2023-05-01T10:22:51.624Z,25.26
2023-05-01T10:23:51.623Z,25.26
2023-05-01T10:24:51.696Z,25.24
2023-05-01T10:25:51.637Z,25.24
2023-05-01T10:26:51.664Z,25.23
2023-05-01T10:27:51.702Z,25.26
2023-05-01T10:28:51.684Z,25.24
2023-05-01T10:29:51.732Z,25.23
2023-05-01T10:30:52.018Z,25.24
2023-05-01T10:31:51.974Z,25.24
2023-05-01T10:32:51.887Z,25.24
2023-05-01T10:33:51.789Z,25.23
2023-05-01T10:34:51.801Z,25.24
2023-05-01T10:35:51.853Z,25.23
2023-05-01T10:36:51.803Z,25.23
2023-05-01T10:37:51.843Z,25.24
2023-05-01T10:38:51.866Z,25.23
2023-05-01T10:39:51.879Z,25.23
2023-05-01T10:40:51.876Z,25.23
2023-05-01T10:41:51.883Z,25.26
2023-05-01T10:42:51.938Z,25.24
2023-05-01T10:43:51.947Z,25.23
2023-05-01T10:44:51.933Z,25.24
2023-05-01T10:45:52.009Z,25.26
2023-05-01T10:46:52.022Z,25.26
2023-05-01T10:47:52.005Z,25.26
2023-05-01T10:48:52.073Z,25.24
2023-05-01T10:49:52.002Z,25.26
2023-05-01T10:50:52.016Z,25.29
2023-05-01T10:51:52.039Z,25.24
2023-05-01T10:52:52.062Z,25.29
2023-05-01T10:53:52.074Z,25.26
2023-05-01T10:54:52.099Z,25.27
2023-05-01T10:55:52.090Z,25.26
2023-05-01T10:56:52.091Z,25.27
2023-05-01T10:57:52.135Z,25.27
2023-05-01T10:58:52.114Z,25.30
2023-05-01T10:59:52.134Z,25.29
2023-05-01T11:00:52.171Z,25.26
2023-05-01T11:01:52.280Z,25.30
2023-05-01T11:02:52.196Z,25.29
2023-05-01T11:03:52.199Z,25.30
2023-05-01T11:04:52.271Z,25.33
2023-05-01T11:05:52.238Z,25.30
2023-05-01T11:06:52.227Z,25.30
2023-05-01T11:07:52.249Z,25.31
2023-05-01T11:08:52.235Z,25.31
2023-05-01T11:09:52.249Z,25.30
2023-05-01T11:10:52.284Z,25.31
2023-05-01T11:11:52.310Z,25.31
2023-05-01T11:12:52.319Z,25.31
2023-05-01T11:13:52.288Z,25.33
2023-05-01T11:14:52.331Z,25.31
2023-05-01T11:15:52.350Z,25.34
2023-05-01T11:16:52.421Z,25.33
2023-05-01T11:17:52.384Z,25.34
2023-05-01T11:18:52.368Z,25.33
2023-05-01T11:19:52.396Z,25.34
2023-05-01T11:20:52.382Z,25.34
2023-05-01T11:21:52.382Z,25.34
2023-05-01T11:22:52.362Z,25.33
2023-05-01T11:23:52.406Z,25.36
2023-05-01T11:24:52.351Z,25.34
2023-05-01T11:25:52.407Z,25.31
2023-05-01T11:26:52.414Z,25.31
2023-05-01T11:27:52.432Z,25.34
2023-05-01T11:28:52.441Z,25.34
2023-05-01T11:29:52.439Z,25.34
2023-05-01T11:30:52.508Z,25.34
2023-05-01T11:31:52.503Z,25.34
2023-05-01T11:32:52.478Z,25.36
2023-05-01T11:33:52.460Z,25.34
2023-05-01T11:34:52.471Z,25.36
2023-05-01T11:35:52.473Z,25.33
2023-05-01T11:36:52.462Z,25.34
2023-05-01T11:37:52.498Z,25.36
2023-05-01T11:38:52.512Z,25.34
2023-05-01T11:39:52.480Z,25.36
2023-05-01T11:40:52.488Z,25.34
2023-05-01T11:41:52.528Z,25.34
2023-05-01T11:42:52.500Z,25.36
2023-05-01T11:43:52.528Z,25.34
2023-05-01T11:44:52.537Z,25.31
2023-05-01T11:45:52.600Z,25.34
2023-05-01T11:46:52.523Z,25.36
2023-05-01T11:47:52.568Z,25.37
2023-05-01T11:48:52.574Z,25.31
2023-05-01T11:49:52.538Z,25.33
2023-05-01T11:50:52.554Z,25.34
2023-05-01T11:51:52.554Z,25.37
2023-05-01T11:52:52.592Z,25.36
2023-05-01T11:53:52.582Z,25.36
2023-05-01T11:54:52.587Z,25.34
2023-05-01T11:55:52.564Z,25.36
2023-05-01T11:56:52.594Z,25.33
2023-05-01T11:57:52.584Z,25.34
2023-05-01T11:58:52.607Z,25.37
2023-05-01T11:59:52.599Z,25.36
2023-05-01T12:00:52.623Z,25.36
2023-05-01T12:01:52.682Z,25.34
2023-05-01T12:02:52.732Z,25.37
2023-05-01T12:03:52.695Z,25.34
2023-05-01T12:04:52.856Z,25.36
2023-05-01T12:05:52.684Z,25.36
2023-05-01T12:06:52.764Z,25.34
2023-05-01T12:07:52.696Z,25.34
2023-05-01T12:08:52.694Z,25.33
2023-05-01T12:09:52.667Z,25.31
2023-05-01T12:10:52.770Z,25.33
2023-05-01T12:11:53.113Z,25.34
2023-05-01T12:12:52.905Z,25.34
2023-05-01T12:13:52.702Z,25.33
2023-05-01T12:14:52.665Z,25.34
2023-05-01T12:15:52.730Z,25.36
2023-05-01T12:16:52.787Z,25.36
2023-05-01T12:17:53.050Z,25.34
2023-05-01T12:18:52.735Z,25.36
2023-05-01T12:19:52.744Z,25.38
2023-05-01T12:20:52.977Z,25.36
2023-05-01T12:21:52.701Z,25.36
2023-05-01T12:22:52.833Z,25.36
2023-05-01T12:23:52.741Z,25.38
2023-05-01T12:24:52.784Z,25.36
2023-05-01T12:25:52.766Z,25.37
2023-05-01T12:26:52.756Z,25.34
2023-05-01T12:27:52.721Z,25.37
2023-05-01T12:28:52.822Z,25.40
2023-05-01T12:29:52.823Z,25.36
2023-05-01T12:30:52.760Z,25.38
2023-05-01T12:31:52.848Z,25.38
2023-05-01T12:32:52.823Z,25.38
2023-05-01T12:33:52.785Z,25.40
2023-05-01T12:34:52.850Z,25.40
2023-05-01T12:35:52.777Z,25.40
2023-05-01T12:36:52.819Z,25.41
2023-05-01T12:37:52.754Z,25.40
2023-05-01T12:38:52.765Z,25.42
2023-05-01T12:39:52.812Z,25.41
2023-05-01T12:40:52.854Z,25.42
2023-05-01T12:41:52.871Z,25.42
2023-05-01T12:42:52.763Z,25.42
2023-05-01T12:43:52.784Z,25.44
2023-05-01T12:44:52.830Z,25.45
2023-05-01T12:45:52.786Z,25.44
2023-05-01T12:46:52.864Z,25.44
2023-05-01T12:47:52.813Z,25.45
2023-05-01T12:48:54.365Z,25.45
2023-05-01T12:49:52.743Z,25.45
2023-05-01T12:50:52.754Z,25.44
2023-05-01T12:51:52.724Z,25.45
2023-05-01T12:52:52.748Z,25.45
2023-05-01T12:53:52.752Z,25.44